sensor_id;sensor_type;location;lat;lon;timestamp;temperature;humidity
7700;DHT22;3892;47.794;19.126;2023-03-13T00:00:55;11.00;24.40
7700;DHT22;3892;47.794;19.126;2023-03-13T00:03:24;11.00;24.50
7700;DHT22;3892;47.794;19.126;2023-03-13T00:05:54;11.00;24.50
7700;DHT22;3892;47.794;19.126;2023-03-13T00:08:22;11.10;24.80
7700;DHT22;3892;47.794;19.126;2023-03-13T00:10:49;11.20;24.90
7700;DHT22;3892;47.794;19.126;2023-03-13T00:13:16;11.30;24.80
7700;DHT22;3892;47.794;19.126;2023-03-13T00:15:43;11.30;24.60
7700;DHT22;3892;47.794;19.126;2023-03-13T00:18:10;11.50;24.90
7700;DHT22;3892;47.794;19.126;2023-03-13T00:20:39;11.50;24.70
7700;DHT22;3892;47.794;19.126;2023-03-13T00:23:06;11.60;24.90
7700;DHT22;3892;47.794;19.126;2023-03-13T00:25:33;11.70;25.10
7700;DHT22;3892;47.794;19.126;2023-03-13T00:28:00;11.80;25.30
7700;DHT22;3892;47.794;19.126;2023-03-13T00:30:27;11.90;25.30
7700;DHT22;3892;47.794;19.126;2023-03-13T00:32:54;12.10;25.30
7700;DHT22;3892;47.794;19.126;2023-03-13T00:35:21;12.20;25.30
7700;DHT22;3892;47.794;19.126;2023-03-13T00:37:49;12.30;25.10
7700;DHT22;3892;47.794;19.126;2023-03-13T00:40:17;12.40;25.20
7700;DHT22;3892;47.794;19.126;2023-03-13T00:42:45;12.30;25.70
7700;DHT22;3892;47.794;19.126;2023-03-13T00:45:12;12.40;26.10
7700;DHT22;3892;47.794;19.126;2023-03-13T00:47:39;12.50;26.10
7700;DHT22;3892;47.794;19.126;2023-03-13T00:50:09;12.50;26.10
7700;DHT22;3892;47.794;19.126;2023-03-13T00:52:36;12.50;26.30
7700;DHT22;3892;47.794;19.126;2023-03-13T00:55:05;12.40;25.80
7700;DHT22;3892;47.794;19.126;2023-03-13T00:57:32;12.30;26.10
7700;DHT22;3892;47.794;19.126;2023-03-13T01:00:03;12.40;26.50
7700;DHT22;3892;47.794;19.126;2023-03-13T01:02:32;12.50;26.80
7700;DHT22;3892;47.794;19.126;2023-03-13T01:04:59;12.50;26.70
7700;DHT22;3892;47.794;19.126;2023-03-13T01:07:28;12.40;26.60
7700;DHT22;3892;47.794;19.126;2023-03-13T01:09:55;12.30;26.30
7700;DHT22;3892;47.794;19.126;2023-03-13T01:12:23;12.30;26.60
7700;DHT22;3892;47.794;19.126;2023-03-13T01:14:50;12.20;26.50
7700;DHT22;3892;47.794;19.126;2023-03-13T01:17:20;12.20;26.60
7700;DHT22;3892;47.794;19.126;2023-03-13T01:19:48;12.30;26.70
7700;DHT22;3892;47.794;19.126;2023-03-13T01:22:15;12.20;26.40
7700;DHT22;3892;47.794;19.126;2023-03-13T01:24:42;12.20;26.60
7700;DHT22;3892;47.794;19.126;2023-03-13T01:27:10;12.20;26.70
7700;DHT22;3892;47.794;19.126;2023-03-13T01:29:39;12.20;26.90
7700;DHT22;3892;47.794;19.126;2023-03-13T01:32:06;12.20;26.80
7700;DHT22;3892;47.794;19.126;2023-03-13T01:34:34;12.30;26.80
7700;DHT22;3892;47.794;19.126;2023-03-13T01:37:01;12.30;26.70
7700;DHT22;3892;47.794;19.126;2023-03-13T01:39:28;12.30;26.80
7700;DHT22;3892;47.794;19.126;2023-03-13T01:41:55;12.40;26.90
7700;DHT22;3892;47.794;19.126;2023-03-13T01:44:23;12.40;27.20
7700;DHT22;3892;47.794;19.126;2023-03-13T01:46:54;12.30;26.50
7700;DHT22;3892;47.794;19.126;2023-03-13T01:49:26;12.20;26.50
7700;DHT22;3892;47.794;19.126;2023-03-13T01:52:01;12.10;26.70
7700;DHT22;3892;47.794;19.126;2023-03-13T01:54:36;12.10;26.90
7700;DHT22;3892;47.794;19.126;2023-03-13T01:57:07;12.10;26.90
7700;DHT22;3892;47.794;19.126;2023-03-13T01:59:39;12.10;27.00
7700;DHT22;3892;47.794;19.126;2023-03-13T02:02:09;12.10;27.10
7700;DHT22;3892;47.794;19.126;2023-03-13T02:04:39;12.10;27.20
7700;DHT22;3892;47.794;19.126;2023-03-13T02:07:11;12.00;27.20
7700;DHT22;3892;47.794;19.126;2023-03-13T02:09:41;11.90;27.30
7700;DHT22;3892;47.794;19.126;2023-03-13T02:12:12;11.80;27.40
7700;DHT22;3892;47.794;19.126;2023-03-13T02:14:42;11.80;27.60
7700;DHT22;3892;47.794;19.126;2023-03-13T02:17:12;11.80;27.80
7700;DHT22;3892;47.794;19.126;2023-03-13T02:19:42;11.80;27.90
7700;DHT22;3892;47.794;19.126;2023-03-13T02:22:16;11.80;28.00
7700;DHT22;3892;47.794;19.126;2023-03-13T02:24:52;11.80;28.10
7700;DHT22;3892;47.794;19.126;2023-03-13T02:27:21;11.80;28.20
7700;DHT22;3892;47.794;19.126;2023-03-13T02:29:49;11.70;28.30
7700;DHT22;3892;47.794;19.126;2023-03-13T02:32:17;11.60;28.50
7700;DHT22;3892;47.794;19.126;2023-03-13T02:34:47;11.70;28.70
7700;DHT22;3892;47.794;19.126;2023-03-13T02:37:15;11.70;28.70
7700;DHT22;3892;47.794;19.126;2023-03-13T02:39:46;11.70;28.80
7700;DHT22;3892;47.794;19.126;2023-03-13T02:42:15;11.70;28.80
7700;DHT22;3892;47.794;19.126;2023-03-13T02:44:45;11.70;28.80
7700;DHT22;3892;47.794;19.126;2023-03-13T02:47:17;11.60;28.90
7700;DHT22;3892;47.794;19.126;2023-03-13T02:49:45;11.70;29.10
7700;DHT22;3892;47.794;19.126;2023-03-13T02:52:13;11.80;29.10
7700;DHT22;3892;47.794;19.126;2023-03-13T02:54:45;11.80;28.90
7700;DHT22;3892;47.794;19.126;2023-03-13T02:57:13;11.80;28.80
7700;DHT22;3892;47.794;19.126;2023-03-13T02:59:40;11.80;28.70
7700;DHT22;3892;47.794;19.126;2023-03-13T03:02:09;11.80;28.80
7700;DHT22;3892;47.794;19.126;2023-03-13T03:04:36;11.70;28.80
7700;DHT22;3892;47.794;19.126;2023-03-13T03:07:03;11.80;28.90
7700;DHT22;3892;47.794;19.126;2023-03-13T03:09:31;11.90;29.00
7700;DHT22;3892;47.794;19.126;2023-03-13T03:12:03;11.90;29.00
7700;DHT22;3892;47.794;19.126;2023-03-13T03:14:31;12.00;29.00
7700;DHT22;3892;47.794;19.126;2023-03-13T03:16:59;12.00;29.00
7700;DHT22;3892;47.794;19.126;2023-03-13T03:19:28;11.90;28.90
7700;DHT22;3892;47.794;19.126;2023-03-13T03:21:55;11.90;28.90
7700;DHT22;3892;47.794;19.126;2023-03-13T03:24:22;11.80;28.80
7700;DHT22;3892;47.794;19.126;2023-03-13T03:26:49;11.70;28.80
7700;DHT22;3892;47.794;19.126;2023-03-13T03:29:23;11.70;29.00
7700;DHT22;3892;47.794;19.126;2023-03-13T03:31:53;11.80;29.20
7700;DHT22;3892;47.794;19.126;2023-03-13T03:34:20;11.80;29.10
7700;DHT22;3892;47.794;19.126;2023-03-13T03:36:50;11.80;29.00
7700;DHT22;3892;47.794;19.126;2023-03-13T03:39:17;11.60;28.90
7700;DHT22;3892;47.794;19.126;2023-03-13T03:41:44;11.60;29.10
7700;DHT22;3892;47.794;19.126;2023-03-13T03:44:11;11.70;29.10
7700;DHT22;3892;47.794;19.126;2023-03-13T03:46:50;11.70;29.10
7700;DHT22;3892;47.794;19.126;2023-03-13T03:49:17;11.80;29.20
7700;DHT22;3892;47.794;19.126;2023-03-13T03:51:44;11.90;29.20
7700;DHT22;3892;47.794;19.126;2023-03-13T03:54:15;12.00;29.10
7700;DHT22;3892;47.794;19.126;2023-03-13T03:56:42;12.00;29.00
7700;DHT22;3892;47.794;19.126;2023-03-13T03:59:10;12.10;29.00
7700;DHT22;3892;47.794;19.126;2023-03-13T04:01:43;12.20;29.00
7700;DHT22;3892;47.794;19.126;2023-03-13T04:04:11;12.30;29.00
7700;DHT22;3892;47.794;19.126;2023-03-13T04:06:41;12.40;29.00
7700;DHT22;3892;47.794;19.126;2023-03-13T04:09:09;12.40;29.00
7700;DHT22;3892;47.794;19.126;2023-03-13T04:11:39;12.40;29.00
7700;DHT22;3892;47.794;19.126;2023-03-13T04:14:08;12.40;29.00
7700;DHT22;3892;47.794;19.126;2023-03-13T04:16:35;12.40;29.00
7700;DHT22;3892;47.794;19.126;2023-03-13T04:19:02;12.30;29.00
7700;DHT22;3892;47.794;19.126;2023-03-13T04:21:30;12.20;29.00
7700;DHT22;3892;47.794;19.126;2023-03-13T04:24:01;12.20;29.20
7700;DHT22;3892;47.794;19.126;2023-03-13T04:26:29;12.20;29.20
7700;DHT22;3892;47.794;19.126;2023-03-13T04:28:59;12.20;29.20
7700;DHT22;3892;47.794;19.126;2023-03-13T04:31:44;12.20;29.30
7700;DHT22;3892;47.794;19.126;2023-03-13T04:34:40;12.20;29.30
7700;DHT22;3892;47.794;19.126;2023-03-13T04:37:30;12.30;29.40
7700;DHT22;3892;47.794;19.126;2023-03-13T04:40:23;12.20;29.20
7700;DHT22;3892;47.794;19.126;2023-03-13T04:43:14;12.10;29.70
7700;DHT22;3892;47.794;19.126;2023-03-13T04:45:59;12.10;29.40
7700;DHT22;3892;47.794;19.126;2023-03-13T04:48:42;12.00;29.40
7700;DHT22;3892;47.794;19.126;2023-03-13T04:51:26;12.00;29.50
7700;DHT22;3892;47.794;19.126;2023-03-13T04:54:18;11.90;29.50
7700;DHT22;3892;47.794;19.126;2023-03-13T04:56:56;11.80;29.70
7700;DHT22;3892;47.794;19.126;2023-03-13T04:59:40;11.70;29.80
7700;DHT22;3892;47.794;19.126;2023-03-13T05:02:28;11.70;29.90
7700;DHT22;3892;47.794;19.126;2023-03-13T05:05:14;11.60;29.80
7700;DHT22;3892;47.794;19.126;2023-03-13T05:08:00;11.60;30.00
7700;DHT22;3892;47.794;19.126;2023-03-13T05:10:36;11.60;30.00
7700;DHT22;3892;47.794;19.126;2023-03-13T05:13:22;11.60;30.00
7700;DHT22;3892;47.794;19.126;2023-03-13T05:16:09;11.60;30.00
7700;DHT22;3892;47.794;19.126;2023-03-13T05:19:07;11.50;30.10
7700;DHT22;3892;47.794;19.126;2023-03-13T05:21:54;11.50;30.30
7700;DHT22;3892;47.794;19.126;2023-03-13T05:24:44;11.40;30.50
7700;DHT22;3892;47.794;19.126;2023-03-13T05:27:40;11.40;30.50
7700;DHT22;3892;47.794;19.126;2023-03-13T05:30:31;11.40;30.60
7700;DHT22;3892;47.794;19.126;2023-03-13T05:33:28;11.40;30.70
7700;DHT22;3892;47.794;19.126;2023-03-13T05:36:09;11.30;30.60
7700;DHT22;3892;47.794;19.126;2023-03-13T05:38:57;11.40;30.60
7700;DHT22;3892;47.794;19.126;2023-03-13T05:41:50;11.40;30.50
7700;DHT22;3892;47.794;19.126;2023-03-13T05:44:36;11.30;30.60
7700;DHT22;3892;47.794;19.126;2023-03-13T05:47:22;11.30;30.80
7700;DHT22;3892;47.794;19.126;2023-03-13T05:50:07;11.30;31.00
7700;DHT22;3892;47.794;19.126;2023-03-13T05:52:56;11.10;30.90
7700;DHT22;3892;47.794;19.126;2023-03-13T05:55:33;10.90;31.10
7700;DHT22;3892;47.794;19.126;2023-03-13T05:58:20;10.90;31.30
7700;DHT22;3892;47.794;19.126;2023-03-13T06:01:07;10.90;31.50
7700;DHT22;3892;47.794;19.126;2023-03-13T06:03:46;10.90;31.40
7700;DHT22;3892;47.794;19.126;2023-03-13T06:06:14;11.00;31.40
7700;DHT22;3892;47.794;19.126;2023-03-13T06:08:50;11.00;31.40
7700;DHT22;3892;47.794;19.126;2023-03-13T06:11:18;11.00;31.30
7700;DHT22;3892;47.794;19.126;2023-03-13T06:13:45;11.00;31.40
7700;DHT22;3892;47.794;19.126;2023-03-13T06:16:25;11.00;32.10
7700;DHT22;3892;47.794;19.126;2023-03-13T06:18:56;11.00;31.50
7700;DHT22;3892;47.794;19.126;2023-03-13T06:21:23;11.00;31.40
7700;DHT22;3892;47.794;19.126;2023-03-13T06:23:53;11.00;31.40
7700;DHT22;3892;47.794;19.126;2023-03-13T06:26:20;11.00;31.40
7700;DHT22;3892;47.794;19.126;2023-03-13T06:28:49;11.10;31.50
7700;DHT22;3892;47.794;19.126;2023-03-13T06:31:16;11.20;31.40
7700;DHT22;3892;47.794;19.126;2023-03-13T06:33:43;11.20;31.10
7700;DHT22;3892;47.794;19.126;2023-03-13T06:36:11;11.30;31.10
7700;DHT22;3892;47.794;19.126;2023-03-13T06:38:38;11.30;31.00
7700;DHT22;3892;47.794;19.126;2023-03-13T06:41:06;11.20;30.90
7700;DHT22;3892;47.794;19.126;2023-03-13T06:43:33;11.30;31.00
7700;DHT22;3892;47.794;19.126;2023-03-13T06:46:16;11.30;30.80
7700;DHT22;3892;47.794;19.126;2023-03-13T06:48:43;11.30;30.90
7700;DHT22;3892;47.794;19.126;2023-03-13T06:51:11;11.40;30.80
7700;DHT22;3892;47.794;19.126;2023-03-13T06:53:48;11.50;30.60
7700;DHT22;3892;47.794;19.126;2023-03-13T06:56:26;11.50;30.40
7700;DHT22;3892;47.794;19.126;2023-03-13T06:58:53;11.50;30.50
7700;DHT22;3892;47.794;19.126;2023-03-13T07:01:20;11.40;30.40
7700;DHT22;3892;47.794;19.126;2023-03-13T07:03:48;11.40;30.50
7700;DHT22;3892;47.794;19.126;2023-03-13T07:06:15;11.40;30.60
7700;DHT22;3892;47.794;19.126;2023-03-13T07:08:43;11.30;30.60
7700;DHT22;3892;47.794;19.126;2023-03-13T07:11:12;11.30;30.70
7700;DHT22;3892;47.794;19.126;2023-03-13T07:13:41;11.20;30.70
7700;DHT22;3892;47.794;19.126;2023-03-13T07:16:09;11.20;30.80
7700;DHT22;3892;47.794;19.126;2023-03-13T07:18:38;11.30;30.90
7700;DHT22;3892;47.794;19.126;2023-03-13T07:21:09;11.40;30.90
7700;DHT22;3892;47.794;19.126;2023-03-13T07:23:36;11.40;30.70
7700;DHT22;3892;47.794;19.126;2023-03-13T07:26:05;11.50;30.80
7700;DHT22;3892;47.794;19.126;2023-03-13T07:28:33;11.50;30.80
7700;DHT22;3892;47.794;19.126;2023-03-13T07:31:06;11.50;30.80
7700;DHT22;3892;47.794;19.126;2023-03-13T07:33:34;11.10;30.50
7700;DHT22;3892;47.794;19.126;2023-03-13T07:36:01;11.30;30.80
7700;DHT22;3892;47.794;19.126;2023-03-13T07:38:28;11.20;30.80
7700;DHT22;3892;47.794;19.126;2023-03-13T07:40:56;11.30;31.00
7700;DHT22;3892;47.794;19.126;2023-03-13T07:43:25;11.30;31.00
7700;DHT22;3892;47.794;19.126;2023-03-13T07:45:54;11.30;31.00
7700;DHT22;3892;47.794;19.126;2023-03-13T07:48:24;11.40;30.80
7700;DHT22;3892;47.794;19.126;2023-03-13T07:50:53;11.50;30.70
7700;DHT22;3892;47.794;19.126;2023-03-13T07:53:20;11.60;30.60
7700;DHT22;3892;47.794;19.126;2023-03-13T07:55:52;11.60;30.20
7700;DHT22;3892;47.794;19.126;2023-03-13T07:58:20;11.70;30.20
7700;DHT22;3892;47.794;19.126;2023-03-13T08:00:47;11.80;30.10
7700;DHT22;3892;47.794;19.126;2023-03-13T08:03:14;11.70;29.80
7700;DHT22;3892;47.794;19.126;2023-03-13T08:05:42;11.70;29.90
7700;DHT22;3892;47.794;19.126;2023-03-13T08:08:09;11.70;30.00
7700;DHT22;3892;47.794;19.126;2023-03-13T08:10:36;11.80;29.90
7700;DHT22;3892;47.794;19.126;2023-03-13T08:13:08;11.90;29.80
7700;DHT22;3892;47.794;19.126;2023-03-13T08:15:35;11.90;29.60
7700;DHT22;3892;47.794;19.126;2023-03-13T08:18:05;12.10;29.90
7700;DHT22;3892;47.794;19.126;2023-03-13T08:20:35;12.10;29.50
7700;DHT22;3892;47.794;19.126;2023-03-13T08:23:03;12.30;29.50
7700;DHT22;3892;47.794;19.126;2023-03-13T08:25:30;12.40;29.40
7700;DHT22;3892;47.794;19.126;2023-03-13T08:27:57;12.50;29.70
7700;DHT22;3892;47.794;19.126;2023-03-13T08:30:24;12.60;29.30
7700;DHT22;3892;47.794;19.126;2023-03-13T08:32:51;12.70;29.10
7700;DHT22;3892;47.794;19.126;2023-03-13T08:35:18;12.80;29.30
7700;DHT22;3892;47.794;19.126;2023-03-13T08:37:45;12.90;29.20
7700;DHT22;3892;47.794;19.126;2023-03-13T08:40:14;13.00;29.10
7700;DHT22;3892;47.794;19.126;2023-03-13T08:42:41;13.10;28.80
7700;DHT22;3892;47.794;19.126;2023-03-13T08:45:13;13.30;28.90
7700;DHT22;3892;47.794;19.126;2023-03-13T08:47:44;13.40;29.00
7700;DHT22;3892;47.794;19.126;2023-03-13T08:50:16;13.60;28.70
7700;DHT22;3892;47.794;19.126;2023-03-13T08:52:45;13.60;28.20
7700;DHT22;3892;47.794;19.126;2023-03-13T08:55:16;13.70;28.40
7700;DHT22;3892;47.794;19.126;2023-03-13T08:57:43;13.80;28.60
7700;DHT22;3892;47.794;19.126;2023-03-13T09:00:11;13.90;28.40
7700;DHT22;3892;47.794;19.126;2023-03-13T09:02:39;14.10;28.60
7700;DHT22;3892;47.794;19.126;2023-03-13T09:05:07;14.20;28.00
7700;DHT22;3892;47.794;19.126;2023-03-13T09:07:34;14.30;27.70
7700;DHT22;3892;47.794;19.126;2023-03-13T09:10:01;14.30;27.40
7700;DHT22;3892;47.794;19.126;2023-03-13T09:12:32;14.30;27.50
7700;DHT22;3892;47.794;19.126;2023-03-13T09:15:02;14.30;27.40
7700;DHT22;3892;47.794;19.126;2023-03-13T09:17:31;14.50;27.90
7700;DHT22;3892;47.794;19.126;2023-03-13T09:19:58;14.60;27.50
7700;DHT22;3892;47.794;19.126;2023-03-13T09:22:25;14.70;27.40
7700;DHT22;3892;47.794;19.126;2023-03-13T09:24:52;14.80;27.50
7700;DHT22;3892;47.794;19.126;2023-03-13T09:27:19;14.80;27.40
7700;DHT22;3892;47.794;19.126;2023-03-13T09:29:47;14.90;27.40
7700;DHT22;3892;47.794;19.126;2023-03-13T09:32:14;15.00;27.30
7700;DHT22;3892;47.794;19.126;2023-03-13T09:34:41;14.90;26.90
7700;DHT22;3892;47.794;19.126;2023-03-13T09:37:08;15.10;27.10
7700;DHT22;3892;47.794;19.126;2023-03-13T09:39:36;15.20;27.00
7700;DHT22;3892;47.794;19.126;2023-03-13T09:42:09;15.30;27.00
7700;DHT22;3892;47.794;19.126;2023-03-13T09:44:43;15.40;26.60
7700;DHT22;3892;47.794;19.126;2023-03-13T09:47:18;15.50;26.80
7700;DHT22;3892;47.794;19.126;2023-03-13T09:49:48;15.60;55.40
7700;DHT22;3892;47.794;19.126;2023-03-13T09:52:22;15.80;63.00
7700;DHT22;3892;47.794;19.126;2023-03-13T10:20:16;17.10;25.20
7700;DHT22;3892;47.794;19.126;2023-03-13T10:22:45;17.10;26.10
7700;DHT22;3892;47.794;19.126;2023-03-13T10:25:24;17.20;26.20
7700;DHT22;3892;47.794;19.126;2023-03-13T10:27:52;17.20;25.70
7700;DHT22;3892;47.794;19.126;2023-03-13T10:30:23;17.30;25.60
7700;DHT22;3892;47.794;19.126;2023-03-13T10:32:57;17.30;25.50
7700;DHT22;3892;47.794;19.126;2023-03-13T10:35:31;17.40;25.20
7700;DHT22;3892;47.794;19.126;2023-03-13T10:38:04;17.40;25.60
7700;DHT22;3892;47.794;19.126;2023-03-13T10:40:32;17.50;25.50
7700;DHT22;3892;47.794;19.126;2023-03-13T10:43:02;17.20;25.10
7700;DHT22;3892;47.794;19.126;2023-03-13T10:45:32;17.40;25.60
7700;DHT22;3892;47.794;19.126;2023-03-13T10:48:09;17.50;25.40
7700;DHT22;3892;47.794;19.126;2023-03-13T10:50:41;17.60;25.60
7700;DHT22;3892;47.794;19.126;2023-03-13T10:53:24;17.80;25.60
7700;DHT22;3892;47.794;19.126;2023-03-13T10:55:53;17.80;25.30
7700;DHT22;3892;47.794;19.126;2023-03-13T10:58:25;17.70;25.30
7700;DHT22;3892;47.794;19.126;2023-03-13T11:01:18;17.80;25.50
7700;DHT22;3892;47.794;19.126;2023-03-13T11:03:49;18.00;25.80
7700;DHT22;3892;47.794;19.126;2023-03-13T11:06:27;18.20;25.70
7700;DHT22;3892;47.794;19.126;2023-03-13T11:08:59;18.20;25.80
7700;DHT22;3892;47.794;19.126;2023-03-13T11:11:27;18.30;26.00
7700;DHT22;3892;47.794;19.126;2023-03-13T11:14:07;18.40;25.80
7700;DHT22;3892;47.794;19.126;2023-03-13T11:16:38;18.40;25.50
7700;DHT22;3892;47.794;19.126;2023-03-13T11:19:23;18.50;25.50
7700;DHT22;3892;47.794;19.126;2023-03-13T11:22:03;18.70;26.00
7700;DHT22;3892;47.794;19.126;2023-03-13T11:24:41;19.00;25.70
7700;DHT22;3892;47.794;19.126;2023-03-13T11:27:15;19.00;25.60
7700;DHT22;3892;47.794;19.126;2023-03-13T11:29:56;19.10;25.80
7700;DHT22;3892;47.794;19.126;2023-03-13T11:32:33;19.10;25.40
7700;DHT22;3892;47.794;19.126;2023-03-13T11:35:10;19.00;25.30
7700;DHT22;3892;47.794;19.126;2023-03-13T11:37:43;19.10;25.40
7700;DHT22;3892;47.794;19.126;2023-03-13T11:40:17;19.20;25.30
7700;DHT22;3892;47.794;19.126;2023-03-13T11:42:56;19.20;25.40
7700;DHT22;3892;47.794;19.126;2023-03-13T11:45:49;19.30;25.70
7700;DHT22;3892;47.794;19.126;2023-03-13T11:48:30;19.20;25.40
7700;DHT22;3892;47.794;19.126;2023-03-13T11:51:07;19.10;25.30
7700;DHT22;3892;47.794;19.126;2023-03-13T11:53:54;19.40;25.80
7700;DHT22;3892;47.794;19.126;2023-03-13T11:56:26;19.60;25.40
7700;DHT22;3892;47.794;19.126;2023-03-13T11:59:05;19.40;25.10
7700;DHT22;3892;47.794;19.126;2023-03-13T12:01:37;19.60;25.60
7700;DHT22;3892;47.794;19.126;2023-03-13T12:04:09;19.60;25.10
7700;DHT22;3892;47.794;19.126;2023-03-13T12:06:41;19.60;25.30
7700;DHT22;3892;47.794;19.126;2023-03-13T12:09:13;19.70;25.20
7700;DHT22;3892;47.794;19.126;2023-03-13T12:11:46;19.60;25.10
7700;DHT22;3892;47.794;19.126;2023-03-13T12:14:17;19.70;25.00
7700;DHT22;3892;47.794;19.126;2023-03-13T12:16:51;19.80;25.20
7700;DHT22;3892;47.794;19.126;2023-03-13T12:19:25;19.90;25.20
7700;DHT22;3892;47.794;19.126;2023-03-13T12:21:56;20.00;25.30
7700;DHT22;3892;47.794;19.126;2023-03-13T12:24:28;19.90;25.10
7700;DHT22;3892;47.794;19.126;2023-03-13T12:26:59;19.60;24.90
7700;DHT22;3892;47.794;19.126;2023-03-13T12:29:40;19.60;25.40
7700;DHT22;3892;47.794;19.126;2023-03-13T12:32:13;19.40;25.20
7700;DHT22;3892;47.794;19.126;2023-03-13T12:34:49;19.20;25.10
7700;DHT22;3892;47.794;19.126;2023-03-13T12:37:23;19.20;25.60
7700;DHT22;3892;47.794;19.126;2023-03-13T12:39:56;19.10;25.60
7700;DHT22;3892;47.794;19.126;2023-03-13T12:42:36;19.10;25.70
7700;DHT22;3892;47.794;19.126;2023-03-13T12:45:07;19.30;25.90
7700;DHT22;3892;47.794;19.126;2023-03-13T12:47:47;19.40;25.70
7700;DHT22;3892;47.794;19.126;2023-03-13T12:50:30;19.50;25.70
7700;DHT22;3892;47.794;19.126;2023-03-13T12:56:09;19.80;25.90
7700;DHT22;3892;47.794;19.126;2023-03-13T12:58:45;19.90;25.70
7700;DHT22;3892;47.794;19.126;2023-03-13T13:01:20;19.80;25.60
7700;DHT22;3892;47.794;19.126;2023-03-13T13:03:55;19.90;25.60
7700;DHT22;3892;47.794;19.126;2023-03-13T13:06:23;19.90;25.70
7700;DHT22;3892;47.794;19.126;2023-03-13T13:09:13;19.90;25.70
7700;DHT22;3892;47.794;19.126;2023-03-13T13:11:46;19.80;25.80
7700;DHT22;3892;47.794;19.126;2023-03-13T13:17:23;19.80;25.80
7700;DHT22;3892;47.794;19.126;2023-03-13T13:19:52;19.90;25.90
7700;DHT22;3892;47.794;19.126;2023-03-13T13:22:45;19.80;25.70
7700;DHT22;3892;47.794;19.126;2023-03-13T13:25:31;19.60;25.70
7700;DHT22;3892;47.794;19.126;2023-03-13T13:34:52;19.50;26.40
7700;DHT22;3892;47.794;19.126;2023-03-13T13:37:25;19.60;26.30
7700;DHT22;3892;47.794;19.126;2023-03-13T13:40:07;19.50;26.20
7700;DHT22;3892;47.794;19.126;2023-03-13T13:42:46;19.50;26.20
7700;DHT22;3892;47.794;19.126;2023-03-13T13:45:26;19.40;26.20
7700;DHT22;3892;47.794;19.126;2023-03-13T13:51:24;19.10;26.20
7700;DHT22;3892;47.794;19.126;2023-03-13T13:53:56;19.20;26.60
7700;DHT22;3892;47.794;19.126;2023-03-13T13:59:30;19.10;26.80
7700;DHT22;3892;47.794;19.126;2023-03-13T14:02:19;18.90;26.60
7700;DHT22;3892;47.794;19.126;2023-03-13T14:04:50;18.90;26.70
7700;DHT22;3892;47.794;19.126;2023-03-13T14:07:24;18.90;27.20
7700;DHT22;3892;47.794;19.126;2023-03-13T14:10:07;18.90;26.80
7700;DHT22;3892;47.794;19.126;2023-03-13T14:12:45;19.00;27.00
7700;DHT22;3892;47.794;19.126;2023-03-13T14:15:15;19.00;27.30
7700;DHT22;3892;47.794;19.126;2023-03-13T14:17:44;18.90;26.70
7700;DHT22;3892;47.794;19.126;2023-03-13T14:20:27;19.00;26.90
7700;DHT22;3892;47.794;19.126;2023-03-13T14:22:57;19.10;27.10
7700;DHT22;3892;47.794;19.126;2023-03-13T14:25:26;19.00;27.00
7700;DHT22;3892;47.794;19.126;2023-03-13T14:27:54;19.10;27.00
7700;DHT22;3892;47.794;19.126;2023-03-13T14:30:22;19.10;27.10
7700;DHT22;3892;47.794;19.126;2023-03-13T14:32:50;19.10;27.20
7700;DHT22;3892;47.794;19.126;2023-03-13T14:35:19;19.00;27.20
7700;DHT22;3892;47.794;19.126;2023-03-13T14:37:50;19.00;27.40
7700;DHT22;3892;47.794;19.126;2023-03-13T14:40:25;19.00;27.40
7700;DHT22;3892;47.794;19.126;2023-03-13T14:42:55;19.00;27.60
7700;DHT22;3892;47.794;19.126;2023-03-13T14:45:26;19.00;27.50
7700;DHT22;3892;47.794;19.126;2023-03-13T14:48:00;18.90;27.50
7700;DHT22;3892;47.794;19.126;2023-03-13T14:50:28;18.90;27.50
7700;DHT22;3892;47.794;19.126;2023-03-13T14:52:58;18.90;27.60
7700;DHT22;3892;47.794;19.126;2023-03-13T14:55:32;18.90;27.70
7700;DHT22;3892;47.794;19.126;2023-03-13T14:58:02;19.00;27.80
7700;DHT22;3892;47.794;19.126;2023-03-13T15:00:39;19.00;27.60
7700;DHT22;3892;47.794;19.126;2023-03-13T15:03:24;19.00;27.70
7700;DHT22;3892;47.794;19.126;2023-03-13T15:06:23;19.00;27.70
7700;DHT22;3892;47.794;19.126;2023-03-13T15:09:16;19.00;27.80
7700;DHT22;3892;47.794;19.126;2023-03-13T15:11:54;19.10;27.80
7700;DHT22;3892;47.794;19.126;2023-03-13T15:14:36;19.00;27.60
7700;DHT22;3892;47.794;19.126;2023-03-13T15:17:13;19.10;27.60
7700;DHT22;3892;47.794;19.126;2023-03-13T15:19:41;19.10;27.70
7700;DHT22;3892;47.794;19.126;2023-03-13T15:22:11;19.00;27.60
7700;DHT22;3892;47.794;19.126;2023-03-13T15:24:39;19.00;27.70
7700;DHT22;3892;47.794;19.126;2023-03-13T15:27:14;18.90;27.80
7700;DHT22;3892;47.794;19.126;2023-03-13T15:29:42;18.90;28.00
7700;DHT22;3892;47.794;19.126;2023-03-13T15:32:13;18.90;28.00
7700;DHT22;3892;47.794;19.126;2023-03-13T15:34:42;18.90;28.00
7700;DHT22;3892;47.794;19.126;2023-03-13T15:37:11;18.80;28.00
7700;DHT22;3892;47.794;19.126;2023-03-13T15:39:38;18.80;28.10
7700;DHT22;3892;47.794;19.126;2023-03-13T15:42:06;18.70;28.10
7700;DHT22;3892;47.794;19.126;2023-03-13T15:44:34;18.70;28.30
7700;DHT22;3892;47.794;19.126;2023-03-13T15:47:01;18.60;28.30
7700;DHT22;3892;47.794;19.126;2023-03-13T15:49:28;18.60;28.40
7700;DHT22;3892;47.794;19.126;2023-03-13T15:51:56;18.60;28.50
7700;DHT22;3892;47.794;19.126;2023-03-13T15:54:23;18.60;28.50
7700;DHT22;3892;47.794;19.126;2023-03-13T15:56:51;18.50;28.50
7700;DHT22;3892;47.794;19.126;2023-03-13T15:59:18;18.50;28.60
7700;DHT22;3892;47.794;19.126;2023-03-13T16:01:46;18.50;28.80
7700;DHT22;3892;47.794;19.126;2023-03-13T16:04:14;18.40;28.70
7700;DHT22;3892;47.794;19.126;2023-03-13T16:06:41;18.40;28.90
7700;DHT22;3892;47.794;19.126;2023-03-13T16:09:10;18.40;28.80
7700;DHT22;3892;47.794;19.126;2023-03-13T16:11:37;18.40;28.80
7700;DHT22;3892;47.794;19.126;2023-03-13T16:14:04;18.40;28.80
7700;DHT22;3892;47.794;19.126;2023-03-13T16:16:33;18.40;28.90
7700;DHT22;3892;47.794;19.126;2023-03-13T16:19:02;18.50;29.00
7700;DHT22;3892;47.794;19.126;2023-03-13T16:21:31;18.40;28.90
7700;DHT22;3892;47.794;19.126;2023-03-13T16:23:59;18.40;29.00
7700;DHT22;3892;47.794;19.126;2023-03-13T16:26:28;18.40;29.10
7700;DHT22;3892;47.794;19.126;2023-03-13T16:28:56;18.30;29.10
7700;DHT22;3892;47.794;19.126;2023-03-13T16:31:24;18.30;29.30
7700;DHT22;3892;47.794;19.126;2023-03-13T16:33:53;18.30;29.30
7700;DHT22;3892;47.794;19.126;2023-03-13T16:36:23;18.30;29.30
7700;DHT22;3892;47.794;19.126;2023-03-13T16:38:50;18.30;29.40
7700;DHT22;3892;47.794;19.126;2023-03-13T16:41:19;18.20;29.30
7700;DHT22;3892;47.794;19.126;2023-03-13T16:43:47;18.20;29.50
7700;DHT22;3892;47.794;19.126;2023-03-13T16:46:16;18.20;29.40
7700;DHT22;3892;47.794;19.126;2023-03-13T16:48:44;18.20;29.50
7700;DHT22;3892;47.794;19.126;2023-03-13T16:51:19;18.10;29.50
7700;DHT22;3892;47.794;19.126;2023-03-13T16:53:49;18.10;29.60
7700;DHT22;3892;47.794;19.126;2023-03-13T16:56:24;18.10;29.70
7700;DHT22;3892;47.794;19.126;2023-03-13T16:58:52;18.10;29.60
7700;DHT22;3892;47.794;19.126;2023-03-13T17:01:21;18.10;29.60